Time;durP1;ratioP1;P1;durP2;ratioP2;P2;SDS_P1;SDS_P2;PMS_P1;PMS_P2;Temp;Humidity;BMP_temperature;BMP_pressure;BME280_temperature;BME280_humidity;BME280_pressure;Samples;Min_cycle;Max_cycle;Signal;HPM_P1;HPM_P2
2022/06/18 00:00:14;;;;;;;13.10;4.22;;;;;;;-146.64;81.38;37021.72;5070418;28;20040;-75
2022/06/18 00:02:41;;;;;;;10.38;3.60;;;;;;;-146.64;81.68;37019.66;5064863;28;20035;-75
2022/06/18 00:05:07;;;;;;;8.60;3.50;;;;;;;-146.64;83.56;37017.63;5071371;28;20284;-74
2022/06/18 00:07:38;;;;;;;7.20;3.08;;;;;;;-146.64;83.35;37009.44;5071235;28;20035;-75
2022/06/18 00:10:05;;;;;;;10.23;3.33;;;;;;;-146.64;84.10;37042.16;5071160;28;20024;-74
2022/06/18 00:15:21;;;;;;;7.90;3.85;;;;;;;-146.64;83.56;37038.06;5088151;28;20062;-75
2022/06/18 00:17:48;;;;;;;7.70;3.50;;;;;;;-146.64;83.58;37033.97;5069942;28;20047;-75
2022/06/18 00:20:14;;;;;;;6.65;3.35;;;;;;;-146.64;83.08;37003.28;5068631;28;20383;-75
2022/06/18 00:22:40;;;;;;;;;;;;;;;-146.64;82.82;37019.66;5056708;28;20033;-74
2022/06/18 00:25:33;;;;;;;10.05;3.75;;;;;;;-146.64;83.31;37023.75;5060264;28;19920;-75
2022/06/18 00:27:59;;;;;;;5.93;3.55;;;;;;;-146.64;82.58;37017.63;5049078;28;20037;-76
2022/06/18 00:30:26;;;;;;;9.73;3.33;;;;;;;-146.64;82.58;36993.06;5057846;28;20499;-75
2022/06/18 00:32:52;;;;;;;8.82;3.30;;;;;;;-146.64;83.48;36997.16;5066178;28;20036;-75
2022/06/18 00:35:18;;;;;;;7.00;3.70;;;;;;;-146.64;83.56;37029.88;5070571;28;20028;-73
2022/06/18 00:37:44;;;;;;;3.92;3.00;;;;;;;-146.64;83.71;36999.22;5063451;28;20032;-75
2022/06/18 00:40:23;;;;;;;11.00;3.92;;;;;;;-146.64;83.58;36968.53;5070353;28;20372;-75
2022/06/18 00:42:49;;;;;;;11.48;3.42;;;;;;;-146.64;83.71;36995.13;5058646;28;20480;-75
2022/06/18 00:45:24;;;;;;;9.13;3.47;;;;;;;-146.64;83.88;36984.88;5069046;28;20031;-76
2022/06/18 00:48:06;;;;;;;22.38;4.03;;;;;;;-146.64;84.30;36980.81;5053040;28;20047;-74
2022/06/18 00:50:49;;;;;;;12.13;3.45;;;;;;;-146.64;84.42;37040.13;5079644;28;20507;-74
2022/06/18 00:53:45;;;;;;;9.73;3.38;;;;;;;-146.64;85.04;36993.06;5071816;28;20024;-74
2022/06/18 00:56:54;;;;;;;19.83;3.70;;;;;;;-146.64;85.98;37033.97;5032074;28;20082;-75
2022/06/18 00:59:24;;;;;;;8.25;4.32;;;;;;;-146.64;87.74;36968.53;5041675;28;20056;-74
2022/06/18 01:01:50;;;;;;;7.80;3.88;;;;;;;-146.64;87.49;36997.16;5072852;28;20437;-73
2022/06/18 01:04:41;;;;;;;9.57;3.83;;;;;;;-146.64;88.24;37015.56;5090630;28;20032;-74
2022/06/18 01:07:30;;;;;;;10.57;3.50;;;;;;;-146.64;89.90;36905.13;5057280;28;20071;-73
2022/06/18 01:09:57;;;;;;;9.57;3.80;;;;;;;-146.64;90.71;36864.22;5063618;28;20039;-74
2022/06/18 01:12:22;;;;;;;;;;;;;;;-146.64;90.51;36915.34;5077591;28;20028;-74
2022/06/18 01:14:51;;;;;;;14.50;4.05;;;;;;;-146.64;90.14;36898.97;5068707;28;20394;-74
2022/06/18 01:17:17;;;;;;;8.63;3.95;;;;;;;-146.64;90.28;36835.59;5053923;28;20029;-74
2022/06/18 01:19:46;;;;;;;6.05;4.03;;;;;;;-146.64;89.95;36903.06;5086895;28;20059;-73
2022/06/18 01:22:20;;;;;;;8.32;4.47;;;;;;;-146.64;89.95;36886.72;5064801;28;20039;-74
2022/06/18 01:24:46;;;;;;;8.35;4.03;;;;;;;-146.64;90.33;36894.91;5092190;28;20479;-74
2022/06/18 01:27:11;;;;;;;8.60;4.30;;;;;;;-146.64;91.61;36849.91;5073315;28;20024;-74
2022/06/18 01:29:37;;;;;;;6.37;3.33;;;;;;;-146.64;91.58;36870.34;5072204;28;20020;-75
2022/06/18 01:32:04;;;;;;;9.80;4.10;;;;;;;-146.64;92.46;36845.81;5054500;28;20024;-75
2022/06/18 01:34:30;;;;;;;12.60;4.80;;;;;;;-146.64;93.01;36837.63;5072789;28;20112;-74
2022/06/18 01:36:57;;;;;;;16.67;4.75;;;;;;;-146.64;92.08;36833.53;5090773;28;20386;-73
2022/06/18 01:39:25;;;;;;;11.02;4.43;;;;;;;-146.64;92.53;36870.34;5056504;28;20043;-76
2022/06/18 01:41:54;;;;;;;12.07;4.63;;;;;;;-146.64;93.36;36819.22;5074301;28;20024;-76
2022/06/18 01:44:38;;;;;;;14.45;4.50;;;;;;;-146.64;93.52;36829.44;5071485;28;20070;-74
2022/06/18 01:47:09;;;;;;;13.60;4.32;;;;;;;-146.64;95.00;36755.81;5063108;28;20052;-75
2022/06/18 01:49:40;;;;;;;18.45;4.65;;;;;;;-146.64;94.81;36792.63;5073962;28;20024;-74
2022/06/18 01:52:08;;;;;;;14.15;4.75;;;;;;;-146.64;95.41;36764.00;5063885;28;20374;-74
2022/06/18 01:54:49;;;;;;;11.23;4.20;;;;;;;-146.64;95.40;36739.44;5051823;28;20483;-74
2022/06/18 01:57:18;;;;;;;10.65;5.10;;;;;;;-146.64;95.33;36774.22;5081378;28;20031;-74
2022/06/18 01:59:47;;;;;;;17.25;4.90;;;;;;;-146.64;95.75;36772.19;5052437;28;20033;-74
2022/06/18 02:02:13;;;;;;;8.23;4.18;;;;;;;-146.64;95.87;36776.25;5063103;28;20099;-75
2022/06/18 02:04:38;;;;;;;11.70;5.10;;;;;;;-146.64;94.87;36817.16;5071311;28;20031;-72
2022/06/18 02:07:05;;;;;;;7.30;4.17;;;;;;;-146.64;95.52;36804.91;5068037;28;20354;-73
2022/06/18 02:09:49;;;;;;;10.82;4.22;;;;;;;-146.64;96.42;36858.06;5076934;28;20123;-74
2022/06/18 02:12:17;;;;;;;15.85;5.20;;;;;;;-146.64;96.44;36735.38;5056797;28;20525;-70
2022/06/18 02:14:48;;;;;;;13.73;4.80;;;;;;;-146.64;95.80;36813.09;5072597;28;20118;-71
2022/06/18 02:17:17;;;;;;;15.32;4.57;;;;;;;-146.64;95.81;36784.44;5072648;28;20028;-74
2022/06/18 02:19:45;;;;;;;12.10;4.45;;;;;;;-146.64;95.54;36833.53;5071896;28;20020;-73
2022/06/18 02:22:11;;;;;;;11.52;4.38;;;;;;;-146.64;95.72;36813.09;5052955;28;20383;-73
2022/06/18 02:24:36;;;;;;;9.90;4.73;;;;;;;-146.64;95.07;36858.06;5053228;28;20039;-73
2022/06/18 02:27:03;;;;;;;13.03;4.80;;;;;;;-146.64;95.04;36847.84;5067672;28;20037;-74
2022/06/18 02:29:28;;;;;;;;;;;;;;;-146.64;94.78;36829.44;5068988;28;20024;-73
2022/06/18 02:31:54;;;;;;;12.52;5.60;;;;;;;-146.64;94.91;36839.66;5079340;28;19985;-73
2022/06/18 02:34:23;;;;;;;12.45;4.82;;;;;;;-146.64;95.24;36841.72;5053424;28;20318;-73
2022/06/18 02:36:49;;;;;;;19.70;4.88;;;;;;;-146.64;95.48;36837.63;5063809;28;20042;-72
2022/06/18 02:39:33;;;;;;;11.20;4.47;;;;;;;-146.64;95.70;36835.59;5071810;28;20025;-73
2022/06/18 02:42:06;;;;;;;12.15;4.47;;;;;;;-146.64;96.04;36831.50;5060533;28;20028;-73
2022/06/18 02:44:32;;;;;;;11.15;4.45;;;;;;;-146.64;96.06;36825.34;5071284;28;20028;-70
2022/06/18 02:47:00;;;;;;;16.60;4.78;;;;;;;-146.64;96.42;36878.53;5068444;28;20095;-70
2022/06/18 02:49:26;;;;;;;14.60;5.43;;;;;;;-146.64;96.98;36829.44;5088925;28;20487;-70
2022/06/18 02:51:51;;;;;;;20.00;5.13;;;;;;;-146.64;97.63;36825.34;5063168;28;20023;-70
2022/06/18 02:54:18;;;;;;;16.60;5.07;;;;;;;-146.64;97.82;36772.19;5069176;28;20050;-73
2022/06/18 02:56:45;;;;;;;8.55;4.25;;;;;;;-146.64;98.57;36759.91;5069092;28;20032;-73
2022/06/18 02:59:10;;;;;;;20.10;5.38;;;;;;;-146.64;99.56;36764.00;5070106;28;20027;-73
2022/06/18 03:01:35;;;;;;;12.77;4.93;;;;;;;-146.64;100.00;36755.81;5060731;28;20498;-73
2022/06/18 03:04:02;;;;;;;9.67;4.80;;;;;;;-146.64;100.00;36733.31;5072566;28;20039;-73
2022/06/18 03:06:29;;;;;;;10.05;5.32;;;;;;;-146.64;100.00;36751.72;5059313;28;20029;-73
2022/06/18 03:08:55;;;;;;;14.13;5.03;;;;;;;-146.64;100.00;36694.47;5055878;28;20040;-73
2022/06/18 03:14:07;;;;;;;19.88;5.38;;;;;;;-146.64;100.00;36704.69;5069042;28;20032;-72
2022/06/18 03:16:33;;;;;;;9.80;5.35;;;;;;;-146.64;100.00;36682.19;5061876;28;20061;-73
2022/06/18 03:19:03;;;;;;;15.85;4.93;;;;;;;-146.64;100.00;36678.09;5067856;28;20024;-73
2022/06/18 03:21:38;;;;;;;13.32;4.85;;;;;;;-146.64;100.00;36612.66;5062529;28;20377;-73
2022/06/18 03:24:04;;;;;;;16.10;5.78;;;;;;;-146.64;100.00;36633.09;5052097;28;20031;-74
2022/06/18 03:26:30;;;;;;;15.30;5.07;;;;;;;-146.64;100.00;36616.75;5058302;28;20024;-73
2022/06/18 03:28:56;;;;;;;9.17;4.90;;;;;;;-146.64;100.00;36571.75;5070975;28;20068;-74
2022/06/18 03:31:21;;;;;;;19.23;4.97;;;;;;;-146.64;100.00;36524.72;5067837;28;20032;-74
2022/06/18 03:33:47;;;;;;;17.70;5.97;;;;;;;-146.64;100.00;36547.19;5090133;28;20039;-74
2022/06/18 03:36:18;;;;;;;10.98;4.65;;;;;;;-146.64;100.00;36545.16;5086589;28;20035;-72
2022/06/18 03:38:44;;;;;;;17.45;6.05;;;;;;;-146.64;100.00;36502.22;5070966;28;20455;-72
2022/06/18 03:41:10;;;;;;;14.53;4.90;;;;;;;-146.64;100.00;36502.22;5066010;28;20024;-74
2022/06/18 03:43:35;;;;;;;14.98;5.93;;;;;;;-146.64;100.00;36440.84;5069850;28;20292;-73
2022/06/18 03:46:05;;;;;;;14.73;5.40;;;;;;;-146.64;100.00;36416.31;5059894;28;20036;-74
2022/06/18 03:48:44;;;;;;;15.30;5.82;;;;;;;-146.64;100.00;36424.50;5056888;28;20115;-74
2022/06/18 03:51:10;;;;;;;14.70;5.80;;;;;;;-146.64;100.00;36357.00;5063902;28;20115;-73
2022/06/18 03:53:36;;;;;;;18.33;5.80;;;;;;;-146.64;100.00;36305.88;5051825;28;20056;-73
2022/06/18 03:56:01;;;;;;;18.07;6.03;;;;;;;-146.64;100.00;36256.81;5069361;28;20463;-74
2022/06/18 03:58:28;;;;;;;10.73;4.87;;;;;;;-146.64;100.00;36283.38;5070230;28;20042;-74
2022/06/18 04:00:53;;;;;;;;;;;;;;;-146.64;100.00;36260.88;5082645;28;20039;-75
2022/06/18 04:03:19;;;;;;;15.07;5.78;;;;;;;-146.64;100.00;36277.25;5051959;28;19916;-75
2022/06/18 04:05:44;;;;;;;14.00;5.97;;;;;;;-146.64;100.00;36301.78;5072425;28;20151;-75
2022/06/18 04:08:17;;;;;;;14.23;5.60;;;;;;;-146.64;100.00;36142.28;5051895;28;20035;-76
2022/06/18 04:10:43;;;;;;;16.38;6.10;;;;;;;-146.64;100.00;36226.13;5081448;28;20521;-71
2022/06/18 04:13:08;;;;;;;15.87;4.70;;;;;;;-146.64;100.00;36230.22;5071898;28;20107;-71
2022/06/18 04:15:34;;;;;;;17.47;6.00;;;;;;;-146.64;100.00;36138.19;5051205;28;20016;-73
2022/06/18 04:17:59;;;;;;;9.13;5.33;;;;;;;-146.64;100.00;36166.81;5066835;28;20435;-72
2022/06/18 04:20:27;;;;;;;21.47;6.83;;;;;;;-146.64;100.00;36060.47;5068361;28;20024;-73
2022/06/18 04:22:53;;;;;;;21.40;5.28;;;;;;;-146.64;100.00;36068.66;5068556;28;20032;-73
2022/06/18 04:25:18;;;;;;;11.93;5.57;;;;;;;-146.64;100.00;35962.34;5067514;28;20028;-72
2022/06/18 04:27:44;;;;;;;21.40;6.30;;;;;;;-146.64;100.00;35927.56;5068058;28;20030;-72
2022/06/18 04:30:11;;;;;;;11.60;5.63;;;;;;;-146.64;100.00;35882.59;5051018;28;20467;-72
2022/06/18 04:32:37;;;;;;;14.63;5.45;;;;;;;-146.64;100.00;35821.25;5069025;28;20544;-73
2022/06/18 04:35:04;;;;;;;14.48;6.22;;;;;;;-146.64;100.00;35829.41;5070553;28;20055;-73
2022/06/18 04:37:29;;;;;;;15.52;5.10;;;;;;;-146.64;100.00;35798.75;5075814;28;20572;-73
2022/06/18 04:39:55;;;;;;;14.73;6.60;;;;;;;-146.64;100.00;35710.81;5065936;28;20028;-70
2022/06/18 04:42:20;;;;;;;13.67;6.27;;;;;;;-146.64;100.00;35377.53;5059353;28;20032;-72
2022/06/18 04:44:45;;;;;;;20.30;6.43;;;;;;;-146.64;100.00;35508.41;5060092;28;20055;-72
2022/06/18 04:47:11;;;;;;;9.90;5.30;;;;;;;-146.64;100.00;35418.44;5079416;28;20085;-73
2022/06/18 04:49:36;;;;;;;20.57;5.73;;;;;;;-146.64;100.00;35402.09;5077590;28;20481;-73
2022/06/18 04:52:02;;;;;;;23.30;7.17;;;;;;;-146.64;100.00;35438.88;5063744;28;20028;-72
2022/06/18 04:54:27;;;;;;;15.17;5.90;;;;;;;-146.64;100.00;35381.63;5069330;28;20024;-73
2022/06/18 04:56:52;;;;;;;18.60;5.97;;;;;;;-146.64;100.00;35303.94;5080264;28;20067;-72
2022/06/18 04:59:17;;;;;;;21.23;6.27;;;;;;;-146.64;100.00;35308.03;5051306;28;20484;-72
2022/06/18 05:01:43;;;;;;;19.17;7.23;;;;;;;-146.64;100.00;35314.16;5070245;28;20043;-73
2022/06/18 05:04:08;;;;;;;14.97;5.90;;;;;;;-146.64;100.00;35279.41;5046956;28;20035;-75
2022/06/18 05:06:34;;;;;;;15.80;5.50;;;;;;;-146.64;100.00;35332.56;5062499;28;20086;-75
2022/06/18 05:08:59;;;;;;;16.57;6.30;;;;;;;-146.64;100.00;35318.25;5069608;28;20051;-75
2022/06/18 05:11:25;;;;;;;19.03;6.60;;;;;;;-146.64;100.00;35295.75;5079161;28;20126;-72
2022/06/18 05:13:50;;;;;;;15.83;5.70;;;;;;;-146.64;100.00;35430.69;5043224;28;20039;-72
2022/06/18 05:16:15;;;;;;;13.67;5.57;;;;;;;-146.64;100.00;35442.97;5068971;28;20063;-72
2022/06/18 05:18:45;;;;;;;29.93;6.63;;;;;;;-146.64;100.00;35602.44;5068285;28;20111;-73
2022/06/18 05:21:10;;;;;;;17.58;6.53;;;;;;;-146.64;100.00;35721.03;5082254;28;20028;-72
2022/06/18 05:23:36;;;;;;;16.33;5.43;;;;;;;-146.64;100.00;35725.13;5051889;28;20364;-73
2022/06/18 05:26:02;;;;;;;23.03;6.27;;;;;;;-146.64;100.00;35837.59;5064984;28;20040;-73
2022/06/18 05:28:27;;;;;;;;;;;;;;;-146.64;100.00;35835.56;5067297;28;20063;-72
2022/06/18 05:30:53;;;;;;;17.10;5.87;;;;;;;-146.64;100.00;35860.09;5084762;28;19951;-72
2022/06/18 05:33:18;;;;;;;23.60;7.40;;;;;;;-146.64;100.00;35917.34;5052860;28;20319;-73
2022/06/18 05:35:44;;;;;;;28.23;5.83;;;;;;;-146.64;100.00;35880.53;5066774;28;20028;-73
2022/06/18 05:38:18;;;;;;;29.70;6.45;;;;;;;-146.64;100.00;35919.38;5037022;28;20025;-72
2022/06/18 05:40:44;;;;;;;25.42;7.10;;;;;;;-146.64;100.00;35909.16;5069640;28;20074;-73
2022/06/18 05:43:09;;;;;;;26.83;5.82;;;;;;;-146.64;100.00;35896.91;5062075;28;20028;-73
2022/06/18 05:45:35;;;;;;;16.53;5.47;;;;;;;-146.64;100.00;35962.34;5072183;28;20211;-73
2022/06/18 05:48:00;;;;;;;17.55;6.40;;;;;;;-146.64;100.00;35952.09;5055116;28;20281;-73
2022/06/18 05:50:26;;;;;;;20.50;5.70;;;;;;;-146.64;100.00;35990.97;5060683;28;20505;-73
2022/06/18 05:52:51;;;;;;;14.43;5.70;;;;;;;-146.64;100.00;35909.16;5090876;28;20032;-73
2022/06/18 05:55:20;;;;;;;18.10;5.03;;;;;;;-146.64;99.89;35884.63;5072755;28;20035;-73
2022/06/18 05:57:48;;;;;;;17.00;6.22;;;;;;;-146.64;98.26;35763.97;5050779;28;20037;-73
2022/06/18 06:00:15;;;;;;;19.45;5.70;;;;;;;-146.64;97.48;35811.00;5051988;28;20028;-73
2022/06/18 06:02:40;;;;;;;18.13;6.20;;;;;;;-146.64;95.54;35690.38;5055320;28;20482;-73
2022/06/18 06:05:06;;;;;;;18.40;5.63;;;;;;;-146.64;94.69;35835.56;5073320;28;20073;-73
2022/06/18 06:07:31;;;;;;;27.45;6.20;;;;;;;-146.64;94.39;35811.00;5071482;28;20032;-73
2022/06/18 06:12:48;;;;;;;18.08;6.32;;;;;;;-146.64;94.21;35700.59;5034785;28;20438;-73
2022/06/18 06:15:13;;;;;;;18.37;5.97;;;;;;;-146.64;94.05;35735.34;5071393;28;20024;-73
2022/06/18 06:17:39;;;;;;;25.53;6.70;;;;;;;-146.64;92.75;35694.47;5066948;28;20043;-73
2022/06/18 06:20:13;;;;;;;20.67;6.80;;;;;;;-146.64;91.23;35676.06;5075330;28;20031;-73
2022/06/18 06:22:38;;;;;;;15.23;6.45;;;;;;;-146.64;91.03;35639.25;5071719;28;20359;-74
2022/06/18 06:25:04;;;;;;;20.23;6.47;;;;;;;-146.64;90.10;35559.50;5056011;28;20111;-75
2022/06/18 06:27:29;;;;;;;20.35;6.43;;;;;;;-146.64;91.09;35557.47;5089735;28;20036;-74
2022/06/18 06:29:55;;;;;;;14.37;5.63;;;;;;;-146.64;90.89;35545.19;5083627;28;20737;-74
2022/06/18 06:32:21;;;;;;;27.30;6.87;;;;;;;-146.64;90.43;35573.81;5077826;28;20370;-74
2022/06/18 06:34:46;;;;;;;26.63;7.28;;;;;;;-146.64;88.74;35606.53;5061711;28;20349;-74
2022/06/18 06:37:11;;;;;;;17.77;6.50;;;;;;;-146.64;88.24;35440.94;5066462;28;20071;-75
2022/06/18 06:39:37;;;;;;;19.30;7.00;;;;;;;-146.64;87.19;35410.25;5065143;28;20054;-75
2022/06/18 06:42:03;;;;;;;21.55;7.03;;;;;;;-146.64;86.81;35406.16;5065744;28;20060;-75
2022/06/18 06:44:28;;;;;;;20.48;6.10;;;;;;;-146.64;85.96;35389.81;5061396;28;20064;-75
2022/06/18 06:46:54;;;;;;;19.90;6.97;;;;;;;-146.64;85.31;35371.41;5064448;28;20028;-73
2022/06/18 06:49:20;;;;;;;20.80;7.05;;;;;;;-146.64;85.25;35213.97;5051782;28;20360;-73
2022/06/18 06:51:45;;;;;;;22.65;6.10;;;;;;;-146.64;85.01;35234.44;5069316;28;20039;-73
2022/06/18 06:54:10;;;;;;;14.30;6.17;;;;;;;-146.64;83.12;35171.06;5070308;28;20056;-73
2022/06/18 06:59:20;;;;;;;22.10;7.28;;;;;;;-146.64;83.03;35103.59;5072878;28;20798;-73
2022/06/18 07:01:45;;;;;;;16.40;6.93;;;;;;;-146.64;81.58;35021.81;5073962;28;20032;-73
2022/06/18 07:04:12;;;;;;;19.90;6.65;;;;;;;-146.64;82.87;35136.28;5073679;28;20080;-73
2022/06/18 07:06:37;;;;;;;15.43;6.13;;;;;;;-146.64;81.88;35054.53;5062508;28;20546;-73
2022/06/18 07:09:06;;;;;;;16.20;5.70;;;;;;;-146.64;81.18;35013.63;5072466;28;20036;-73
2022/06/18 07:11:33;;;;;;;20.15;6.60;;;;;;;-146.64;80.09;34913.47;5065117;28;20036;-73
2022/06/18 07:13:58;;;;;;;24.15;7.78;;;;;;;-146.64;81.24;34985.00;5063165;28;20433;-71
2022/06/18 07:16:24;;;;;;;16.20;7.18;;;;;;;-146.64;81.93;35068.84;5069790;28;20032;-71
2022/06/18 07:18:50;;;;;;;23.88;6.13;;;;;;;-146.64;81.22;34972.75;5066934;28;20176;-73
2022/06/18 07:21:16;;;;;;;23.23;6.70;;;;;;;-146.64;81.09;34841.91;5069158;28;20020;-73
2022/06/18 07:23:42;;;;;;;26.40;6.13;;;;;;;-146.64;80.53;34931.84;5072363;28;20447;-73
2022/06/18 07:26:07;;;;;;;;;;;;;;;-146.64;80.03;34911.41;5056383;28;20141;-75
2022/06/18 07:28:33;;;;;;;23.33;6.75;;;;;;;-146.64;80.74;34909.38;5071850;28;20003;-75
2022/06/18 07:30:59;;;;;;;19.23;6.03;;;;;;;-146.64;79.99;34854.19;5064508;28;20031;-74
2022/06/18 07:33:27;;;;;;;27.60;6.07;;;;;;;-146.64;80.12;34866.44;5064729;28;20024;-75
2022/06/18 07:35:52;;;;;;;25.63;5.82;;;;;;;-146.64;79.21;34794.91;5052426;28;20098;-75
2022/06/18 07:38:18;;;;;;;22.02;6.18;;;;;;;-146.64;78.41;34639.53;5060250;28;20032;-75
2022/06/18 07:40:47;;;;;;;16.58;6.35;;;;;;;-146.64;78.61;34731.53;5060052;28;20039;-75
2022/06/18 07:43:18;;;;;;;24.20;6.85;;;;;;;-146.64;77.95;34782.63;5071259;28;21321;-75
2022/06/18 07:45:44;;;;;;;19.42;6.07;;;;;;;-146.64;78.51;34796.94;5053551;28;20039;-74
2022/06/18 07:48:10;;;;;;;25.23;5.97;;;;;;;-146.64;77.07;34837.81;5082185;28;20349;-74
2022/06/18 07:50:36;;;;;;;18.48;5.43;;;;;;;-146.64;77.97;34809.19;5076429;28;20141;-75
2022/06/18 07:53:01;;;;;;;15.32;5.78;;;;;;;-146.64;77.78;34572.06;5060340;28;20189;-74
2022/06/18 07:55:27;;;;;;;18.97;6.20;;;;;;;-146.64;76.48;34704.94;5087485;28;20103;-75
2022/06/18 07:57:53;;;;;;;21.77;6.32;;;;;;;-146.64;76.74;34772.41;5068248;28;20288;-75
2022/06/18 08:00:22;;;;;;;21.77;6.03;;;;;;;-146.64;76.27;34870.53;5070730;28;20029;-75
2022/06/18 08:02:48;;;;;;;19.92;5.28;;;;;;;-146.64;76.94;34987.06;5086525;28;20047;-75
2022/06/18 08:05:18;;;;;;;;;;;;;;;-146.64;75.76;34956.38;5080474;28;20187;-75
2022/06/18 08:07:43;;;;;;;15.32;4.97;;;;;;;-146.64;76.69;35032.03;5068610;28;19915;-74
2022/06/18 08:10:10;;;;;;;22.97;5.63;;;;;;;-146.64;76.95;35107.69;5060872;28;20127;-74
2022/06/18 08:12:35;;;;;;;24.30;7.03;;;;;;;-146.64;75.50;35030.00;5080114;28;20043;-75
2022/06/18 08:15:01;;;;;;;17.17;5.90;;;;;;;-146.64;76.40;35189.44;5067573;28;20073;-75
2022/06/18 08:17:27;;;;;;;26.23;5.72;;;;;;;-146.64;77.43;35275.31;5068575;28;20091;-75
2022/06/18 08:19:53;;;;;;;14.95;5.45;;;;;;;-146.64;78.29;35115.84;5061274;28;20067;-75
2022/06/18 08:22:20;;;;;;;18.20;5.67;;;;;;;-146.64;76.94;35034.06;5068734;28;20067;-75
2022/06/18 08:24:46;;;;;;;17.27;6.35;;;;;;;-146.64;77.90;34890.97;5051775;28;20083;-75
2022/06/18 08:27:11;;;;;;;18.85;7.32;;;;;;;-146.64;76.07;34747.88;5068938;28;20438;-75
2022/06/18 08:29:36;;;;;;;19.63;5.93;;;;;;;-146.64;75.38;34784.66;5086835;28;20130;-74
2022/06/18 08:32:03;;;;;;;18.60;6.00;;;;;;;-146.64;76.35;34790.81;5073435;28;20122;-75
2022/06/18 08:34:28;;;;;;;21.23;6.97;;;;;;;-146.64;76.40;34678.38;5070287;28;20081;-75
2022/06/18 08:36:54;;;;;;;15.20;5.60;;;;;;;-146.64;77.36;34843.97;5049050;28;20445;-73
2022/06/18 08:39:19;;;;;;;19.80;7.83;;;;;;;-146.64;77.99;35040.22;5087109;28;20446;-74
2022/06/18 08:42:06;;;;;;;23.88;6.25;;;;;;;-146.64;78.13;34882.78;5083829;28;20368;-75
2022/06/18 08:44:40;;;;;;;22.25;5.15;;;;;;;-146.64;78.99;34625.22;5088833;28;20069;-74
2022/06/18 08:47:18;;;;;;;23.65;5.95;;;;;;;-146.64;77.30;34664.06;5082860;28;20068;-74
2022/06/18 08:49:57;;;;;;;17.92;5.35;;;;;;;-146.64;76.78;34989.09;5065429;28;20024;-74
2022/06/18 08:52:48;;;;;;;19.42;6.00;;;;;;;-146.64;77.50;35095.41;5068934;28;20031;-74
2022/06/18 08:55:27;;;;;;;21.55;6.10;;;;;;;-146.64;76.45;34985.00;5056017;28;20028;-75
2022/06/18 08:58:02;;;;;;;22.35;6.15;;;;;;;-146.64;75.43;34995.22;5080345;28;20056;-74
2022/06/18 09:00:43;;;;;;;20.83;5.60;;;;;;;-146.64;74.42;34678.38;5065343;28;20025;-75
2022/06/18 09:03:24;;;;;;;14.38;5.63;;;;;;;-146.64;73.10;34649.75;5052252;28;20024;-74
2022/06/18 09:06:01;;;;;;;17.27;4.50;;;;;;;-146.64;72.64;34676.31;5081118;28;20038;-75
2022/06/18 09:08:29;;;;;;;16.00;4.63;;;;;;;-146.64;74.50;34813.28;5079429;28;20108;-75
2022/06/18 09:11:16;;;;;;;17.65;5.30;;;;;;;-146.64;73.29;34872.56;5072548;28;20067;-75
2022/06/18 09:13:47;;;;;;;18.83;5.60;;;;;;;-146.64;73.88;34707.00;5054202;28;20115;-74
2022/06/18 09:16:15;;;;;;;17.83;5.38;;;;;;;-146.64;73.64;34641.56;5073460;28;20046;-73
2022/06/18 09:18:46;;;;;;;20.92;6.22;;;;;;;-146.64;73.82;34899.16;5071743;28;20467;-72
2022/06/18 09:21:16;;;;;;;21.33;5.30;;;;;;;-146.64;71.93;34989.09;5075559;28;20033;-72
2022/06/18 09:23:46;;;;;;;18.67;5.13;;;;;;;-146.64;73.54;34760.13;5057525;28;20032;-72
2022/06/18 09:26:17;;;;;;;26.33;5.43;;;;;;;-146.64;72.93;34649.75;5072453;28;20107;-72
2022/06/18 09:29:24;;;;;;;19.85;5.85;;;;;;;-146.64;74.10;34837.81;5071055;28;20024;-73
2022/06/18 09:31:52;;;;;;;17.13;5.38;;;;;;;-146.64;72.45;34823.50;5067464;28;20458;-72
2022/06/18 09:34:23;;;;;;;15.88;5.05;;;;;;;-146.64;71.29;34837.81;5079926;28;20032;-72
2022/06/18 09:36:54;;;;;;;19.90;4.88;;;;;;;-146.64;71.78;34510.75;5062540;28;20028;-73
2022/06/18 09:39:54;;;;;;;20.27;5.00;;;;;;;-146.64;71.12;34510.75;5087333;28;20039;-72
2022/06/18 09:42:23;;;;;;;19.95;4.03;;;;;;;-146.64;67.96;34523.03;5039891;28;20744;-72
2022/06/18 09:45:02;;;;;;;14.70;4.28;;;;;;;-146.64;67.89;34641.56;5079072;28;20062;-72
2022/06/18 09:47:49;;;;;;;20.60;4.63;;;;;;;-146.64;68.26;34743.78;5054231;28;20386;-71
2022/06/18 09:50:25;;;;;;;19.33;5.05;;;;;;;-146.64;68.39;34375.84;5058762;28;20056;-73
2022/06/18 09:52:57;;;;;;;22.25;5.63;;;;;;;-146.64;68.70;34471.91;5082118;28;20029;-72
2022/06/18 09:55:33;;;;;;;14.93;4.72;;;;;;;-146.64;67.92;34739.69;5056727;28;20036;-72
2022/06/18 09:57:58;;;;;;;13.63;5.45;;;;;;;-146.64;68.31;34486.22;5064064;28;20040;-71
2022/06/18 10:00:28;;;;;;;20.55;4.72;;;;;;;-146.64;69.86;34195.97;5063146;28;20042;-71
2022/06/18 10:03:00;;;;;;;25.60;5.75;;;;;;;-146.64;67.98;34146.91;5068713;28;20489;-71
2022/06/18 10:08:15;;;;;;;18.80;4.90;;;;;;;-146.64;66.72;34249.13;5056479;28;20507;-72
2022/06/18 10:10:47;;;;;;;15.45;5.28;;;;;;;-146.64;66.79;34469.88;5057911;28;20036;-73
2022/06/18 10:13:14;;;;;;;17.98;4.32;;;;;;;-146.64;66.17;34298.16;5065431;28;20035;-72
2022/06/18 10:15:40;;;;;;;21.38;5.03;;;;;;;-146.64;66.47;33934.34;5049837;28;20028;-72
2022/06/18 10:18:30;;;;;;;18.38;5.20;;;;;;;-146.64;65.03;34052.91;5080004;28;20441;-72
2022/06/18 10:21:04;;;;;;;15.57;4.53;;;;;;;-146.64;66.33;33889.41;5073093;28;20082;-71
2022/06/18 10:23:38;;;;;;;13.73;4.35;;;;;;;-146.64;66.92;33417.31;5070655;28;20115;-71
2022/06/18 10:26:15;;;;;;;19.75;4.45;;;;;;;-146.64;65.94;33701.38;5083654;28;21144;-72
2022/06/18 10:29:02;;;;;;;11.52;4.22;;;;;;;-146.64;64.78;33911.88;5053102;28;20078;-72
2022/06/18 10:31:43;;;;;;;18.73;4.55;;;;;;;-146.64;65.11;33860.78;5069117;28;20058;-72
2022/06/18 10:34:19;;;;;;;12.80;3.65;;;;;;;-146.64;63.15;33603.28;5064386;28;20755;-72
2022/06/18 10:37:22;;;;;;;19.27;5.60;;;;;;;-146.64;62.20;33746.34;5077096;28;20031;-72
2022/06/18 10:40:07;;;;;;;17.25;4.72;;;;;;;-146.64;62.90;33764.72;5069308;28;20024;-72
2022/06/18 10:42:43;;;;;;;14.98;4.07;;;;;;;-146.64;62.77;33509.28;5058097;28;20028;-72
2022/06/18 10:45:28;;;;;;;11.23;3.97;;;;;;;-146.64;62.46;33537.88;5058748;28;20143;-73
2022/06/18 10:47:54;;;;;;;20.45;4.45;;;;;;;-146.64;61.43;33562.41;5075460;28;20027;-71
2022/06/18 10:50:20;;;;;;;;;;;;;;;-146.64;62.34;33210.94;5062577;28;20081;-71
2022/06/18 10:53:04;;;;;;;10.95;4.30;;;;;;;-146.64;60.42;33339.66;5058549;28;20086;-72
2022/06/18 10:55:30;;;;;;;15.07;4.25;;;;;;;-146.64;60.44;33450.00;5073642;28;20016;-72
2022/06/18 10:58:06;;;;;;;;;;;;;;;-146.64;59.36;33595.09;5052762;28;20047;-72
2022/06/18 11:00:32;;;;;;;13.20;4.30;;;;;;;-146.64;60.50;33550.16;5052265;28;20421;-71
2022/06/18 11:02:59;;;;;;;;;;;;;;;-146.64;61.34;33603.28;5070104;28;20032;-72
2022/06/18 11:05:33;;;;;;;20.37;5.23;;;;;;;-146.64;60.97;33799.47;5068304;28;20363;-70
2022/06/18 11:08:01;;;;;;;15.32;4.40;;;;;;;-146.64;62.45;33660.50;5071742;28;20024;-71
2022/06/18 11:10:29;;;;;;;13.30;4.25;;;;;;;-146.64;60.15;33650.28;5072850;28;20028;-70
2022/06/18 11:12:56;;;;;;;15.88;4.70;;;;;;;-146.64;60.34;33403.00;5079027;28;20111;-70
2022/06/18 11:15:25;;;;;;;11.07;4.03;;;;;;;-146.64;59.67;33202.75;5035975;28;20082;-71
2022/06/18 11:17:50;;;;;;;21.15;4.75;;;;;;;-146.64;60.04;33417.31;5068431;28;20033;-73
2022/06/18 11:20:26;;;;;;;;;;;;;;;-146.64;59.39;33398.91;5059493;28;20028;-71
2022/06/18 11:23:00;;;;;;;12.77;4.05;;;;;;;-146.64;59.01;33439.78;5071805;28;19973;-72
2022/06/18 11:25:31;;;;;;;13.80;3.83;;;;;;;-146.64;59.57;33215.00;5055295;28;20557;-71
2022/06/18 11:27:59;;;;;;;14.10;4.22;;;;;;;-146.64;58.59;33497.00;5083512;28;20139;-71
2022/06/18 11:30:30;;;;;;;10.15;4.07;;;;;;;-146.64;58.44;33458.19;5055448;28;20023;-71
2022/06/18 11:32:55;;;;;;;16.60;4.20;;;;;;;-146.64;58.27;33537.88;5066955;28;20055;-73
2022/06/18 11:35:42;;;;;;;;;;;;;;;-146.64;60.19;33202.75;5068199;28;20428;-72